Time;durP1;ratioP1;P1;durP2;ratioP2;P2;SDS_P1;SDS_P2;PMS_P1;PMS_P2;Temp;Humidity;BMP_temperature;BMP_pressure;BME280_temperature;BME280_humidity;BME280_pressure;Samples;Min_cycle;Max_cycle;Signal;HPM_P1;HPM_P2
2022/03/16 00:00:33;;;;;;;7.10;5.50;;;6.30;99.90;;;;;;5054170;28;20166;-82
2022/03/16 00:03:01;;;;;;;6.53;5.37;;;6.30;99.90;;;;;;5053948;28;20185;-76
2022/03/16 00:05:29;;;;;;;7.03;5.83;;;6.30;99.90;;;;;;5053727;28;20181;-77
2022/03/16 00:07:57;;;;;;;5.93;5.27;;;6.30;99.90;;;;;;5047169;28;20264;-73
2022/03/16 00:10:25;;;;;;;6.97;5.57;;;6.30;99.90;;;;;;5052877;28;20173;-79
2022/03/16 00:12:53;;;;;;;8.27;5.97;;;6.30;99.90;;;;;;5052991;28;20181;-80
2022/03/16 00:15:18;;;;;;;6.13;5.53;;;6.30;99.90;;;;;;5052126;28;20484;-81
2022/03/16 00:17:44;;;;;;;6.73;5.53;;;6.20;99.90;;;;;;5034088;28;20181;-80
2022/03/16 00:20:12;;;;;;;7.67;6.23;;;6.20;99.90;;;;;;5048597;28;20272;-78
2022/03/16 00:22:41;;;;;;;7.67;6.10;;;6.20;99.90;;;;;;5053790;28;20221;-73
2022/03/16 00:25:07;;;;;;;7.83;6.10;;;6.20;99.90;;;;;;5053746;28;20193;-74
2022/03/16 00:27:35;;;;;;;6.80;5.93;;;6.20;99.90;;;;;;5048761;28;20178;-77
2022/03/16 00:30:01;;;;;;;7.37;6.03;;;6.20;99.90;;;;;;5041626;28;20233;-78
2022/03/16 00:32:29;;;;;;;6.33;5.30;;;6.10;99.90;;;;;;5044008;28;20293;-76
2022/03/16 00:34:59;;;;;;;8.87;5.93;;;6.10;99.90;;;;;;5057057;28;20213;-70
2022/03/16 00:37:27;;;;;;;9.60;5.97;;;6.10;99.90;;;;;;5056657;28;20174;-77
2022/03/16 00:39:55;;;;;;;6.83;5.67;;;6.10;99.90;;;;;;5055673;28;20176;-77
2022/03/16 00:42:22;;;;;;;8.03;6.20;;;6.10;99.90;;;;;;5055591;28;20290;-76
2022/03/16 00:44:50;;;;;;;6.70;6.00;;;6.10;99.90;;;;;;5055426;28;20178;-76
2022/03/16 00:47:21;;;;;;;7.70;6.57;;;6.00;99.90;;;;;;5052086;28;20182;-77
2022/03/16 00:49:47;;;;;;;7.40;6.43;;;6.00;99.90;;;;;;5048874;28;20199;-76
2022/03/16 00:52:12;;;;;;;7.63;5.87;;;6.00;99.90;;;;;;5049270;28;20197;-75
2022/03/16 00:54:40;;;;;;;7.40;5.83;;;6.00;99.90;;;;;;5055687;28;20202;-77
2022/03/16 00:57:08;;;;;;;6.73;6.03;;;5.90;99.90;;;;;;5055867;28;20185;-76
2022/03/16 00:59:36;;;;;;;6.77;5.80;;;5.90;99.90;;;;;;5056215;28;20219;-77
2022/03/16 01:02:03;;;;;;;7.27;6.00;;;5.90;99.90;;;;;;5056426;28;20228;-77
2022/03/16 01:04:31;;;;;;;8.60;5.80;;;5.90;99.90;;;;;;5054239;28;20189;-76
2022/03/16 01:06:57;;;;;;;7.30;6.30;;;5.80;99.90;;;;;;5053605;28;20264;-77
2022/03/16 01:09:28;;;;;;;6.93;6.03;;;5.80;99.90;;;;;;5049440;28;20212;-74
2022/03/16 01:11:56;;;;;;;6.40;5.70;;;5.80;99.90;;;;;;5056554;28;20250;-76
2022/03/16 01:14:24;;;;;;;7.37;6.17;;;5.70;99.90;;;;;;5054165;28;20238;-76
2022/03/16 01:16:50;;;;;;;7.13;5.80;;;5.70;99.90;;;;;;5053881;28;20212;-77
2022/03/16 01:19:17;;;;;;;7.77;5.83;;;5.70;99.90;;;;;;5055979;28;20506;-77
2022/03/16 01:21:44;;;;;;;7.23;5.93;;;5.70;99.90;;;;;;5056351;28;20173;-75
2022/03/16 01:24:12;;;;;;;7.27;6.30;;;5.70;99.90;;;;;;5054417;28;20169;-76
2022/03/16 01:26:38;;;;;;;5.90;5.27;;;5.70;99.90;;;;;;5054487;28;20176;-76
2022/03/16 01:29:04;;;;;;;7.17;5.53;;;5.70;99.90;;;;;;5075549;28;20192;-76
2022/03/16 01:31:35;;;;;;;6.80;5.80;;;5.60;99.90;;;;;;5049321;28;20220;-77
2022/03/16 01:34:01;;;;;;;6.80;5.40;;;5.60;99.90;;;;;;5038422;28;20289;-77
2022/03/16 01:36:29;;;;;;;6.50;5.80;;;5.60;99.90;;;;;;5048259;28;20205;-77
2022/03/16 01:38:55;;;;;;;7.27;6.00;;;5.50;99.90;;;;;;5044648;28;20176;-77
2022/03/16 01:41:25;;;;;;;6.77;5.90;;;5.50;99.90;;;;;;5055973;28;20204;-73
2022/03/16 01:43:58;;;;;;;6.87;6.17;;;5.50;99.90;;;;;;5055534;28;20173;-76
2022/03/16 01:46:26;;;;;;;7.00;5.80;;;5.50;99.90;;;;;;5046494;28;20216;-77
2022/03/16 01:48:52;;;;;;;6.20;5.50;;;5.40;99.90;;;;;;5048037;28;20204;-76
2022/03/16 01:51:18;;;;;;;6.43;5.70;;;5.40;99.90;;;;;;5058984;28;20205;-75
2022/03/16 01:53:43;;;;;;;6.87;5.77;;;5.40;99.90;;;;;;5064010;28;20194;-76
2022/03/16 01:56:09;;;;;;;7.53;6.40;;;5.40;99.90;;;;;;5051601;28;20201;-75
2022/03/16 01:58:38;;;;;;;7.13;6.00;;;5.40;99.90;;;;;;5083249;28;20200;-77
2022/03/16 02:01:03;;;;;;;7.60;5.93;;;5.30;99.90;;;;;;5055603;28;20174;-75
2022/03/16 02:03:31;;;;;;;6.97;6.17;;;5.40;99.90;;;;;;5058257;28;20187;-76
2022/03/16 02:05:57;;;;;;;7.73;6.80;;;5.30;99.90;;;;;;5049543;28;20216;-71
2022/03/16 02:08:22;;;;;;;7.70;6.70;;;5.40;99.90;;;;;;5057635;28;20182;-76
2022/03/16 02:10:48;;;;;;;8.30;6.60;;;5.30;99.90;;;;;;5068507;28;20221;-71
2022/03/16 02:13:16;;;;;;;7.97;7.10;;;5.40;99.90;;;;;;5056644;28;20173;-77
2022/03/16 02:15:42;;;;;;;7.50;6.47;;;5.40;99.90;;;;;;5057882;28;20197;-77
2022/03/16 02:18:07;;;;;;;9.13;7.23;;;5.40;99.90;;;;;;5052524;28;20198;-67
2022/03/16 02:20:33;;;;;;;7.70;6.73;;;5.40;99.90;;;;;;5069177;28;20273;-71
2022/03/16 02:23:01;;;;;;;11.37;8.00;;;5.40;99.90;;;;;;5060554;28;20177;-76
2022/03/16 02:25:29;;;;;;;9.20;7.03;;;5.40;99.90;;;;;;5067229;28;20210;-76
2022/03/16 02:27:56;;;;;;;8.50;7.07;;;5.40;99.90;;;;;;5059981;28;20212;-77
2022/03/16 02:30:26;;;;;;;7.60;6.73;;;5.40;99.90;;;;;;5056899;28;20181;-77
2022/03/16 02:32:53;;;;;;;9.27;7.20;;;5.40;99.90;;;;;;5054803;28;20185;-75
2022/03/16 02:35:19;;;;;;;8.87;7.63;;;5.40;99.90;;;;;;5070403;28;20216;-71
2022/03/16 02:37:49;;;;;;;9.10;8.00;;;5.40;99.90;;;;;;5082693;28;20194;-70
2022/03/16 02:40:25;;;;;;;11.23;8.63;;;5.40;99.90;;;;;;5056651;28;20197;-76
2022/03/16 02:42:53;;;;;;;10.07;8.37;;;5.40;99.90;;;;;;5053882;28;20220;-76
2022/03/16 02:45:19;;;;;;;12.40;9.20;;;5.40;99.90;;;;;;5046672;28;20178;-77
2022/03/16 02:47:45;;;;;;;10.77;8.70;;;5.50;99.90;;;;;;5072414;28;20192;-66
2022/03/16 02:50:12;;;;;;;14.07;10.07;;;5.50;99.90;;;;;;5068063;28;20181;-72
2022/03/16 02:52:39;;;;;;;13.37;10.00;;;5.50;99.90;;;;;;5059105;28;20288;-75
2022/03/16 02:55:06;;;;;;;12.17;10.20;;;5.60;99.90;;;;;;5052794;28;20185;-73
2022/03/16 02:57:32;;;;;;;14.37;10.97;;;5.60;99.90;;;;;;5066023;28;20208;-74
2022/03/16 02:59:58;;;;;;;14.83;10.73;;;5.60;99.90;;;;;;5054984;28;20208;-75
2022/03/16 03:02:28;;;;;;;14.03;10.27;;;5.70;99.90;;;;;;5055475;28;20185;-77
2022/03/16 03:04:54;;;;;;;13.30;10.13;;;5.70;99.90;;;;;;5055572;28;20177;-77
2022/03/16 03:07:21;;;;;;;15.47;10.80;;;5.80;99.90;;;;;;5040182;28;20228;-77
2022/03/16 03:09:47;;;;;;;14.57;10.53;;;5.80;99.90;;;;;;5048707;28;20233;-76
2022/03/16 03:12:13;;;;;;;14.60;10.73;;;5.80;99.90;;;;;;5052917;28;20296;-77
2022/03/16 03:14:39;;;;;;;13.70;10.07;;;5.90;99.90;;;;;;5066508;28;20197;-76
2022/03/16 03:17:05;;;;;;;14.83;11.10;;;5.90;99.90;;;;;;5054653;28;20177;-77
2022/03/16 03:19:30;;;;;;;17.73;12.57;;;6.00;99.90;;;;;;5055075;28;20170;-73
2022/03/16 03:21:59;;;;;;;19.33;12.17;;;6.00;99.90;;;;;;5054842;28;20192;-77
2022/03/16 03:24:27;;;;;;;16.60;11.37;;;6.10;99.90;;;;;;5071367;28;20170;-76
2022/03/16 03:26:53;;;;;;;17.27;12.60;;;6.10;99.90;;;;;;5054731;28;20177;-77
2022/03/16 03:29:21;;;;;;;20.90;13.43;;;6.20;99.90;;;;;;5054180;28;20205;-76
2022/03/16 03:31:49;;;;;;;17.80;12.13;;;6.20;99.90;;;;;;5069863;28;20283;-77
2022/03/16 03:34:15;;;;;;;19.90;14.33;;;6.20;99.90;;;;;;5072228;28;20250;-74
2022/03/16 03:36:41;;;;;;;22.93;14.63;;;6.20;99.90;;;;;;5034939;28;20189;-77
2022/03/16 03:39:07;;;;;;;21.70;14.53;;;6.30;99.90;;;;;;5053440;28;20181;-78
2022/03/16 03:41:35;;;;;;;22.30;15.80;;;6.30;99.90;;;;;;5068955;28;20187;-77
2022/03/16 03:44:00;;;;;;;23.60;15.00;;;6.40;99.90;;;;;;5044897;28;20231;-73
2022/03/16 03:46:26;;;;;;;23.10;15.80;;;6.40;99.90;;;;;;5053222;28;20189;-75
2022/03/16 03:48:55;;;;;;;22.10;15.33;;;6.50;99.90;;;;;;5059854;28;20177;-78
2022/03/16 03:51:23;;;;;;;20.77;14.50;;;6.50;99.90;;;;;;5049163;28;20208;-77
2022/03/16 03:53:51;;;;;;;22.00;15.07;;;6.50;99.90;;;;;;5052978;28;20197;-76
2022/03/16 03:56:19;;;;;;;21.60;14.90;;;6.50;99.90;;;;;;5055072;28;20188;-76
2022/03/16 03:58:47;;;;;;;22.93;15.30;;;6.60;99.90;;;;;;5057713;28;20201;-77
2022/03/16 04:01:15;;;;;;;23.40;15.97;;;6.60;99.90;;;;;;5046497;28;20202;-73
2022/03/16 04:03:44;;;;;;;24.67;16.10;;;6.60;99.90;;;;;;5051556;28;20209;-69
2022/03/16 04:06:12;;;;;;;21.97;15.27;;;6.70;99.90;;;;;;5055003;28;20199;-77
2022/03/16 04:08:38;;;;;;;20.27;14.27;;;6.70;99.90;;;;;;5052405;28;20209;-77
2022/03/16 04:11:07;;;;;;;22.13;15.33;;;6.70;99.90;;;;;;5057232;28;20286;-77
2022/03/16 04:13:32;;;;;;;20.03;13.40;;;6.70;99.90;;;;;;5057498;28;20181;-77
2022/03/16 04:15:58;;;;;;;21.47;14.90;;;6.70;99.90;;;;;;5057178;28;20181;-76
2022/03/16 04:18:27;;;;;;;23.17;15.17;;;6.70;99.90;;;;;;5068182;28;20237;-74
2022/03/16 04:20:53;;;;;;;24.37;16.37;;;6.70;99.90;;;;;;5054127;28;20280;-77
2022/03/16 04:23:18;;;;;;;19.93;14.70;;;6.70;99.90;;;;;;5054484;28;20274;-78
2022/03/16 04:25:44;;;;;;;21.57;14.70;;;6.70;99.90;;;;;;5073965;28;20208;-76
2022/03/16 04:28:09;;;;;;;20.07;13.90;;;6.70;99.90;;;;;;5072866;28;20178;-78
2022/03/16 04:30:37;;;;;;;17.60;12.53;;;6.70;99.90;;;;;;5052113;28;20255;-76
2022/03/16 04:33:05;;;;;;;20.40;14.27;;;6.70;99.90;;;;;;5045363;28;20193;-77
2022/03/16 04:35:31;;;;;;;19.70;13.77;;;6.70;99.90;;;;;;5057153;28;20177;-77
2022/03/16 04:37:56;;;;;;;20.37;14.17;;;6.70;99.90;;;;;;5073634;28;20179;-77
2022/03/16 04:40:24;;;;;;;18.37;12.87;;;6.70;99.90;;;;;;5057007;28;20194;-78
2022/03/16 04:42:50;;;;;;;17.53;12.90;;;6.70;99.90;;;;;;5073019;28;20177;-75
2022/03/16 04:45:18;;;;;;;15.60;11.53;;;6.70;99.90;;;;;;5050193;28;20250;-77
2022/03/16 04:47:44;;;;;;;18.50;13.13;;;6.80;99.90;;;;;;5040360;28;20174;-73
2022/03/16 04:50:09;;;;;;;17.03;11.90;;;6.80;99.90;;;;;;5059428;28;20262;-77
2022/03/16 04:52:42;;;;;;;15.53;11.50;;;6.80;99.90;;;;;;5052715;28;20254;-78
2022/03/16 04:55:10;;;;;;;17.97;12.07;;;6.70;99.90;;;;;;5072503;28;20220;-77
2022/03/16 04:57:38;;;;;;;17.63;12.10;;;6.80;99.90;;;;;;5055853;28;20181;-75
2022/03/16 05:00:05;;;;;;;13.40;10.87;;;6.80;99.90;;;;;;5052188;28;20181;-75
2022/03/16 05:02:31;;;;;;;12.37;10.07;;;6.70;99.90;;;;;;5051282;28;20225;-77
2022/03/16 05:04:58;;;;;;;12.17;9.57;;;6.70;99.90;;;;;;5047660;28;20181;-74
2022/03/16 05:07:24;;;;;;;12.90;9.50;;;6.60;99.90;;;;;;5041849;28;20205;-78
2022/03/16 05:09:52;;;;;;;11.03;9.07;;;6.50;99.90;;;;;;5047438;28;20486;-76
2022/03/16 05:12:19;;;;;;;13.53;10.10;;;6.50;99.90;;;;;;5053865;28;20204;-75
2022/03/16 05:14:48;;;;;;;15.83;10.80;;;6.40;99.90;;;;;;5060672;28;20170;-75
2022/03/16 05:17:15;;;;;;;14.07;10.07;;;6.40;99.90;;;;;;5055532;28;20170;-76
2022/03/16 05:19:43;;;;;;;15.73;11.90;;;6.40;99.90;;;;;;5044201;28;20369;-77
2022/03/16 05:22:09;;;;;;;14.57;10.37;;;6.40;99.90;;;;;;5057054;28;20189;-77
2022/03/16 05:24:35;;;;;;;14.97;10.87;;;6.40;99.90;;;;;;5062890;28;20176;-76
2022/03/16 05:27:02;;;;;;;15.97;10.93;;;6.50;99.90;;;;;;5055830;28;20193;-77
2022/03/16 05:29:30;;;;;;;15.10;11.20;;;6.50;99.90;;;;;;5058631;28;20184;-74
2022/03/16 05:31:58;;;;;;;21.13;12.90;;;6.50;99.90;;;;;;5053699;28;20200;-76
2022/03/16 05:34:30;;;;;;;15.80;12.80;;;6.60;99.90;;;;;;5060910;28;20206;-77
2022/03/16 05:36:58;;;;;;;17.70;12.40;;;6.60;99.90;;;;;;5053788;28;20173;-77
2022/03/16 05:39:26;;;;;;;16.50;12.23;;;6.60;99.90;;;;;;5070230;28;20174;-77
2022/03/16 05:41:52;;;;;;;17.40;12.60;;;6.60;99.90;;;;;;5050621;28;20196;-78
2022/03/16 05:44:17;;;;;;;18.07;13.03;;;6.60;99.90;;;;;;5056870;28;20186;-77
2022/03/16 05:46:45;;;;;;;18.17;13.67;;;6.50;99.90;;;;;;5046541;28;20184;-78
2022/03/16 05:49:11;;;;;;;16.87;13.47;;;6.50;99.90;;;;;;5042112;28;20287;-75
2022/03/16 05:51:41;;;;;;;15.20;11.10;;;6.50;99.90;;;;;;5055380;28;20292;-77
2022/03/16 05:54:07;;;;;;;15.50;11.83;;;6.50;99.90;;;;;;5055167;28;20189;-77
2022/03/16 05:56:33;;;;;;;14.67;11.10;;;6.40;99.90;;;;;;5054988;28;20204;-76
2022/03/16 05:59:01;;;;;;;15.40;11.23;;;6.40;99.90;;;;;;5054842;28;20234;-77
2022/03/16 06:01:26;;;;;;;15.27;11.30;;;6.40;99.90;;;;;;5053228;28;20174;-76
2022/03/16 06:03:53;;;;;;;17.37;13.47;;;6.30;99.90;;;;;;5055087;28;20200;-79
2022/03/16 06:06:20;;;;;;;16.43;12.23;;;6.30;99.90;;;;;;5055213;28;20192;-76
2022/03/16 06:08:45;;;;;;;15.40;11.67;;;6.30;99.90;;;;;;5051029;28;20434;-76
2022/03/16 06:11:11;;;;;;;15.00;11.30;;;6.30;99.90;;;;;;5054867;28;20201;-76
2022/03/16 06:13:39;;;;;;;14.10;10.90;;;6.30;99.90;;;;;;5055154;28;20185;-75
2022/03/16 06:16:05;;;;;;;14.00;10.97;;;6.30;99.90;;;;;;5054874;28;20177;-76
2022/03/16 06:18:33;;;;;;;12.83;9.77;;;6.30;99.90;;;;;;5053750;28;20260;-71
2022/03/16 06:21:01;;;;;;;12.13;9.57;;;6.30;99.90;;;;;;5054516;28;20200;-76
2022/03/16 06:23:26;;;;;;;13.33;10.50;;;6.30;99.90;;;;;;5051139;28;20180;-75
2022/03/16 06:25:54;;;;;;;14.47;10.10;;;6.40;99.90;;;;;;5054870;28;20199;-74
2022/03/16 06:28:22;;;;;;;13.27;10.13;;;6.40;99.90;;;;;;5055943;28;20176;-74
2022/03/16 06:30:48;;;;;;;14.07;10.20;;;6.40;99.90;;;;;;5052394;28;20297;-76
2022/03/16 06:33:14;;;;;;;14.07;11.10;;;6.50;99.90;;;;;;5051627;28;20182;-74
2022/03/16 06:35:39;;;;;;;13.33;10.47;;;6.50;99.90;;;;;;5054796;28;20180;-74
2022/03/16 06:38:05;;;;;;;13.63;10.30;;;6.50;99.90;;;;;;5042530;28;20169;-74
2022/03/16 06:40:33;;;;;;;12.17;9.30;;;6.60;99.90;;;;;;5034673;28;20169;-75
2022/03/16 06:43:04;;;;;;;14.40;10.37;;;6.60;99.90;;;;;;5034647;28;20206;-74
2022/03/16 06:45:30;;;;;;;13.80;10.90;;;6.70;99.90;;;;;;5034768;28;20224;-74
2022/03/16 06:48:00;;;;;;;13.67;10.93;;;6.70;99.90;;;;;;5034392;28;20224;-73
2022/03/16 06:50:27;;;;;;;13.87;10.97;;;6.70;99.90;;;;;;5053923;28;20238;-75
2022/03/16 06:52:54;;;;;;;13.57;10.30;;;6.80;99.90;;;;;;5054483;28;20178;-74
2022/03/16 06:55:22;;;;;;;12.53;10.40;;;6.80;99.90;;;;;;5054179;28;20181;-71
2022/03/16 06:57:52;;;;;;;15.50;12.17;;;6.90;99.90;;;;;;5054108;28;20200;-74
2022/03/16 07:00:18;;;;;;;15.00;12.20;;;6.90;99.90;;;;;;5052180;28;20197;-74
2022/03/16 07:02:56;;;;;;;13.30;10.77;;;6.90;99.90;;;;;;5054279;28;20184;-74
2022/03/16 07:05:31;;;;;;;14.17;11.57;;;6.90;99.90;;;;;;5054328;28;20181;-74
2022/03/16 07:08:02;;;;;;;12.87;10.17;;;7.00;99.90;;;;;;5053729;28;20180;-74
2022/03/16 07:10:29;;;;;;;13.40;10.57;;;7.00;99.90;;;;;;5045888;28;20477;-74
2022/03/16 07:12:57;;;;;;;10.93;9.20;;;7.00;99.90;;;;;;5061380;28;20229;-74
2022/03/16 07:15:24;;;;;;;10.57;8.37;;;7.10;99.90;;;;;;5073756;28;20334;-74
2022/03/16 07:17:49;;;;;;;11.57;8.87;;;7.10;99.90;;;;;;5074201;28;20196;-74
2022/03/16 07:20:20;;;;;;;10.47;8.33;;;7.20;99.90;;;;;;5074026;28;20234;-73
2022/03/16 07:22:48;;;;;;;10.13;8.27;;;7.30;99.90;;;;;;5040783;28;20205;-74
2022/03/16 07:25:13;;;;;;;9.43;7.80;;;7.30;99.90;;;;;;5039293;28;20185;-72
2022/03/16 07:27:40;;;;;;;10.47;7.80;;;7.40;99.90;;;;;;5047562;28;20244;-74
2022/03/16 07:30:08;;;;;;;11.27;8.90;;;7.50;99.90;;;;;;5054043;28;20181;-74
2022/03/16 07:32:41;;;;;;;12.30;9.27;;;7.50;99.90;;;;;;5053720;28;20196;-75
2022/03/16 07:35:11;;;;;;;10.80;9.20;;;7.60;99.90;;;;;;5063324;28;20259;-74
2022/03/16 07:37:38;;;;;;;9.93;8.53;;;7.70;99.90;;;;;;5080332;28;20232;-73
2022/03/16 07:40:09;;;;;;;13.10;10.33;;;7.80;99.90;;;;;;5039505;28;20260;-72
2022/03/16 07:42:38;;;;;;;12.33;10.23;;;7.80;99.90;;;;;;5058681;28;20196;-73
2022/03/16 07:45:04;;;;;;;12.07;9.60;;;7.90;99.90;;;;;;5055103;28;20185;-73
2022/03/16 07:47:32;;;;;;;10.87;8.97;;;7.90;99.90;;;;;;5049788;28;20192;-74
2022/03/16 07:49:58;;;;;;;10.67;8.87;;;8.00;99.90;;;;;;5070344;28;20180;-74
2022/03/16 07:52:24;;;;;;;11.40;9.47;;;8.00;99.90;;;;;;5070451;28;20204;-73
2022/03/16 07:54:50;;;;;;;12.73;9.90;;;8.10;99.90;;;;;;5060937;28;20260;-74
2022/03/16 07:57:16;;;;;;;11.60;9.67;;;8.10;99.90;;;;;;5079198;28;20268;-73
2022/03/16 07:59:42;;;;;;;11.37;9.57;;;8.10;99.90;;;;;;5047875;28;20210;-73
2022/03/16 08:02:08;;;;;;;12.90;10.07;;;8.20;99.90;;;;;;5037231;28;20186;-71
2022/03/16 08:04:36;;;;;;;15.17;12.17;;;8.30;99.90;;;;;;5053715;28;20188;-73
2022/03/16 08:07:01;;;;;;;14.13;11.53;;;8.30;99.90;;;;;;5063508;28;20247;-73
2022/03/16 08:09:29;;;;;;;13.20;11.27;;;8.40;99.90;;;;;;5073757;28;20208;-73
2022/03/16 08:11:55;;;;;;;12.63;10.47;;;8.40;99.90;;;;;;5069858;28;20201;-73
2022/03/16 08:14:20;;;;;;;12.97;10.23;;;8.50;99.90;;;;;;5056665;28;20183;-72
2022/03/16 08:16:48;;;;;;;12.23;10.50;;;8.60;99.90;;;;;;5062160;28;20170;-73
2022/03/16 08:19:16;;;;;;;12.13;10.10;;;8.60;99.90;;;;;;5053223;28;20242;-73
2022/03/16 08:21:44;;;;;;;12.07;10.40;;;8.70;99.90;;;;;;5053340;28;20178;-72
2022/03/16 08:24:13;;;;;;;11.27;9.87;;;8.70;99.90;;;;;;5048749;28;20280;-73
2022/03/16 08:26:41;;;;;;;10.80;9.13;;;8.80;99.90;;;;;;5034084;28;20206;-73
2022/03/16 08:29:07;;;;;;;11.17;9.97;;;8.80;99.90;;;;;;5033509;28;20185;-76
2022/03/16 08:31:35;;;;;;;10.27;8.83;;;8.90;99.90;;;;;;5040050;28;20194;-73
2022/03/16 08:34:03;;;;;;;9.77;8.77;;;9.00;99.90;;;;;;5033520;28;20170;-72
2022/03/16 08:36:33;;;;;;;9.77;8.70;;;9.00;99.90;;;;;;5052448;28;20256;-75
2022/03/16 08:39:03;;;;;;;10.53;9.07;;;9.10;99.90;;;;;;5053255;28;20173;-76
2022/03/16 08:41:31;;;;;;;9.77;8.67;;;9.20;99.90;;;;;;5066612;28;20211;-74
2022/03/16 08:44:01;;;;;;;11.17;9.20;;;9.20;99.90;;;;;;5093933;28;20168;-75
2022/03/16 08:46:27;;;;;;;10.63;8.83;;;9.30;99.90;;;;;;5093593;28;20225;-75
2022/03/16 08:48:53;;;;;;;10.27;9.00;;;9.30;99.90;;;;;;5086125;28;20193;-73
2022/03/16 08:51:19;;;;;;;9.37;8.30;;;9.40;99.90;;;;;;5056801;28;20208;-75
2022/03/16 08:53:45;;;;;;;10.07;8.90;;;9.40;99.90;;;;;;5056600;28;20191;-74
2022/03/16 08:56:12;;;;;;;9.57;8.50;;;9.40;99.90;;;;;;5056557;28;20203;-76
2022/03/16 08:58:38;;;;;;;8.90;8.00;;;9.50;99.90;;;;;;5056598;28;20193;-71
2022/03/16 09:01:05;;;;;;;9.27;8.27;;;9.50;99.90;;;;;;5056698;28;20240;-75
2022/03/16 09:03:30;;;;;;;9.40;8.40;;;9.60;99.90;;;;;;5056638;28;20177;-75
2022/03/16 09:05:56;;;;;;;7.90;7.03;;;9.60;99.90;;;;;;5057485;28;20264;-76
2022/03/16 09:08:24;;;;;;;8.37;7.40;;;9.70;99.90;;;;;;5076347;28;20456;-75
2022/03/16 09:10:53;;;;;;;8.87;7.10;;;9.80;99.90;;;;;;5068989;28;20204;-76
2022/03/16 09:13:20;;;;;;;9.17;7.27;;;9.80;99.90;;;;;;5091467;28;20177;-76
2022/03/16 09:15:46;;;;;;;8.27;7.40;;;9.90;99.90;;;;;;5056175;28;20292;-75
2022/03/16 09:18:14;;;;;;;8.37;7.30;;;10.00;99.90;;;;;;5056267;28;20234;-76
2022/03/16 09:20:40;;;;;;;8.60;7.70;;;10.10;99.90;;;;;;5056262;28;20169;-74
2022/03/16 09:23:10;;;;;;;8.83;7.90;;;10.20;99.90;;;;;;5053663;28;20165;-72
2022/03/16 09:25:36;;;;;;;8.43;7.20;;;10.30;99.90;;;;;;5047784;28;20224;-74
2022/03/16 09:28:02;;;;;;;8.27;7.47;;;10.40;99.90;;;;;;5053248;28;20197;-75
2022/03/16 09:30:28;;;;;;;8.97;7.67;;;10.50;99.90;;;;;;5036052;28;20178;-75
2022/03/16 09:32:58;;;;;;;9.53;8.20;;;10.60;99.90;;;;;;5043483;28;20162;-72
2022/03/16 09:35:24;;;;;;;9.13;8.00;;;10.60;99.90;;;;;;5056015;28;20308;-75
2022/03/16 09:37:50;;;;;;;8.63;7.73;;;10.70;99.90;;;;;;5040380;28;20170;-75
2022/03/16 09:40:17;;;;;;;7.82;7.03;;;10.80;99.90;;;;;;5054466;28;20173;-75
2022/03/16 09:42:48;;;;;;;8.00;6.47;;;10.90;99.90;;;;;;5045362;28;20201;-75
2022/03/16 09:45:22;;;;;;;7.32;6.38;;;11.10;99.90;;;;;;5050914;28;20169;-75
2022/03/16 09:47:49;;;;;;;7.35;6.53;;;11.30;99.90;;;;;;5055808;28;20173;-75
2022/03/16 09:50:20;;;;;;;6.95;6.00;;;11.70;99.90;;;;;;5039380;28;20188;-75
2022/03/16 09:52:47;;;;;;;7.95;7.05;;;12.20;99.90;;;;;;5054752;28;20186;-74
2022/03/16 09:55:17;;;;;;;7.65;6.85;;;12.70;99.90;;;;;;5055429;28;20205;-73
2022/03/16 09:57:43;;;;;;;7.88;7.00;;;13.20;99.90;;;;;;5053435;28;20516;-67
2022/03/16 10:00:12;;;;;;;7.22;6.53;;;13.50;99.90;;;;;;5065705;28;20236;-75
2022/03/16 10:02:41;;;;;;;6.93;6.03;;;13.90;99.90;;;;;;5069271;28;20275;-76
2022/03/16 10:05:10;;;;;;;8.40;6.47;;;14.30;99.90;;;;;;5063800;28;20185;-74
2022/03/16 10:07:40;;;;;;;7.65;6.85;;;14.60;99.90;;;;;;5055050;28;20181;-75
2022/03/16 10:15:38;;;;;;;8.82;6.13;;;15.20;99.90;;;;;;5076266;28;20160;-75
2022/03/16 10:18:04;;;;;;;6.97;6.25;;;15.30;99.90;;;;;;5070482;28;20206;-75
2022/03/16 10:20:39;;;;;;;7.30;6.30;;;15.50;99.90;;;;;;5055298;28;20172;-75
2022/03/16 10:23:10;;;;;;;6.53;5.93;;;15.60;99.90;;;;;;5055084;28;20164;-72
2022/03/16 10:25:47;;;;;;;6.93;6.22;;;15.70;99.90;;;;;;5042437;28;20178;-74
2022/03/16 10:28:20;;;;;;;6.35;5.75;;;15.70;99.90;;;;;;5039228;28;20181;-75
2022/03/16 10:31:08;;;;;;;8.13;6.70;;;15.80;99.90;;;;;;5073005;28;20224;-75
2022/03/16 10:33:56;;;;;;;7.30;6.20;;;15.90;99.90;;;;;;5091785;28;20262;-77
2022/03/16 10:36:26;;;;;;;7.50;6.80;;;15.90;99.90;;;;;;5048217;28;20202;-76
2022/03/16 10:38:58;;;;;;;7.35;6.65;;;15.90;99.90;;;;;;5054615;28;20158;-75
2022/03/16 10:47:02;;;;;;;7.22;5.80;;;16.00;99.90;;;;;;5046222;28;20232;-75
2022/03/16 10:49:34;;;;;;;7.28;6.57;;;16.10;99.90;;;;;;5054646;28;20208;-75
2022/03/16 10:52:02;;;;;;;5.85;5.22;;;16.20;99.90;;;;;;5044280;28;20305;-71
2022/03/16 10:54:29;;;;;;;5.72;5.13;;;16.30;99.90;;;;;;5052628;28;20169;-75
2022/03/16 10:56:55;;;;;;;5.53;5.03;;;16.40;99.90;;;;;;5034894;28;20174;-75
2022/03/16 10:59:27;;;;;;;6.53;5.82;;;16.40;99.90;;;;;;5034610;28;20194;-77
2022/03/16 11:01:53;;;;;;;7.45;5.75;;;16.40;99.90;;;;;;5052098;28;20194;-71
2022/03/16 11:04:20;;;;;;;5.80;5.20;;;16.40;99.90;;;;;;5056570;28;20330;-73
2022/03/16 11:06:47;;;;;;;5.50;5.00;;;16.50;99.90;;;;;;5091922;28;20314;-76
2022/03/16 11:09:15;;;;;;;5.70;5.10;;;16.50;99.90;;;;;;5072865;28;20177;-75
2022/03/16 11:14:27;;;;;;;6.05;5.45;;;16.50;99.90;;;;;;5065615;28;20180;-77
2022/03/16 11:16:53;;;;;;;6.40;5.80;;;16.50;99.90;;;;;;5079192;28;20287;-74
2022/03/16 11:19:22;;;;;;;6.13;5.53;;;16.50;99.90;;;;;;5082664;28;20204;-77
2022/03/16 11:22:11;;;;;;;6.55;5.95;;;16.40;99.90;;;;;;5054251;28;20176;-77
2022/03/16 11:24:44;;;;;;;6.07;5.30;;;16.30;99.90;;;;;;5053851;28;20169;-76
2022/03/16 11:27:13;;;;;;;5.93;4.90;;;16.10;99.90;;;;;;5046154;28;20165;-76
2022/03/16 11:30:09;;;;;;;5.60;5.05;;;15.90;99.90;;;;;;5054999;28;20196;-77
2022/03/16 11:32:38;;;;;;;5.65;5.07;;;15.80;99.90;;;;;;5053924;28;20209;-74
2022/03/16 11:35:08;;;;;;;5.35;4.85;;;15.70;99.90;;;;;;5053832;28;20173;-76
2022/03/16 11:37:44;;;;;;;5.65;5.05;;;15.60;99.90;;;;;;5053758;28;20173;-76
2022/03/16 11:40:13;;;;;;;5.32;4.65;;;15.50;99.90;;;;;;5051116;28;20194;-77
2022/03/16 11:43:05;;;;;;;5.65;5.07;;;15.50;99.90;;;;;;5034006;28;20182;-71
2022/03/16 11:45:37;;;;;;;5.95;5.30;;;15.60;99.90;;;;;;5063902;28;20221;-76
2022/03/16 11:48:37;;;;;;;7.00;6.25;;;15.60;99.90;;;;;;5053610;28;20169;-77
2022/03/16 11:51:08;;;;;;;5.45;4.95;;;15.70;99.90;;;;;;5055628;28;20193;-76
2022/03/16 11:53:46;;;;;;;5.93;5.35;;;15.60;99.90;;;;;;5073883;28;20204;-76
2022/03/16 11:56:23;;;;;;;5.93;5.43;;;15.70;99.90;;;;;;5062238;28;20177;-76
2022/03/16 11:59:05;;;;;;;6.05;4.80;;;15.70;99.90;;;;;;5082799;28;20237;-75
2022/03/16 12:01:32;;;;;;;5.40;4.90;;;15.70;99.90;;;;;;5066337;28;20165;-70
2022/03/16 12:04:12;;;;;;;5.63;4.40;;;15.80;99.90;;;;;;5071966;28;20169;-72
2022/03/16 12:07:14;;;;;;;5.05;4.55;;;15.80;99.90;;;;;;5034074;28;20170;-77
2022/03/16 12:09:45;;;;;;;6.00;5.40;;;15.80;99.90;;;;;;5024225;28;20186;-75
2022/03/16 12:15:11;;;;;;;6.05;5.47;;;16.00;99.90;;;;;;5069406;28;20227;-74
2022/03/16 12:18:00;;;;;;;6.30;4.78;;;16.10;99.90;;;;;;5049766;28;20184;-76
2022/03/16 12:20:40;;;;;;;5.28;4.78;;;16.30;99.90;;;;;;5046139;28;20209;-77
2022/03/16 12:23:14;;;;;;;5.15;4.65;;;16.40;99.90;;;;;;5057112;28;20157;-75
2022/03/16 12:25:42;;;;;;;5.30;4.50;;;16.50;99.90;;;;;;5057551;28;20168;-75
2022/03/16 12:31:18;;;;;;;5.95;5.35;;;16.60;99.90;;;;;;5057444;28;20200;-77
2022/03/16 12:33:48;;;;;;;4.80;4.30;;;16.60;99.90;;;;;;5046641;28;20238;-75
2022/03/16 12:36:20;;;;;;;4.53;4.13;;;16.60;99.90;;;;;;5036967;28;20201;-76
2022/03/16 12:38:51;;;;;;;4.38;3.97;;;16.50;99.90;;;;;;5037264;28;20284;-77
2022/03/16 12:44:07;;;;;;;5.95;5.28;;;16.50;99.90;;;;;;5046653;28;20189;-77
2022/03/16 12:46:40;;;;;;;5.97;5.38;;;16.40;99.90;;;;;;5036747;28;20390;-77
2022/03/16 12:49:11;;;;;;;5.18;4.55;;;16.40;99.90;;;;;;5070768;28;20513;-76
2022/03/16 12:51:46;;;;;;;5.28;4.72;;;16.30;99.90;;;;;;5068552;28;20201;-77
2022/03/16 12:54:32;;;;;;;5.15;4.65;;;16.30;99.90;;;;;;5047314;28;20169;-74
2022/03/16 12:57:10;;;;;;;4.70;4.22;;;16.20;99.90;;;;;;5037144;28;20201;-77
2022/03/16 12:59:52;;;;;;;5.47;4.90;;;16.20;99.90;;;;;;5036758;28;20186;-74
2022/03/16 13:02:23;;;;;;;5.43;4.93;;;16.20;99.90;;;;;;5055045;28;20177;-77
2022/03/16 13:04:56;;;;;;;5.28;4.70;;;16.20;99.90;;;;;;5050343;28;20197;-76
2022/03/16 13:07:24;;;;;;;4.45;4.05;;;16.20;99.90;;;;;;5049442;28;20192;-78
2022/03/16 13:09:52;;;;;;;6.55;4.22;;;16.20;99.90;;;;;;5056450;28;20204;-77
2022/03/16 13:12:24;;;;;;;5.07;4.57;;;16.10;99.90;;;;;;5069711;28;20231;-73
2022/03/16 13:14:53;;;;;;;5.10;4.60;;;16.10;99.90;;;;;;5049836;28;20323;-77